sensor_id;sensor_type;location;lat;lon;timestamp;pressure;altitude;pressure_sealevel;temperature;humidity
5905;BME280;2978;42.012;24.880;2023-02-03T00:01:00;98971.31;;;7.53;56.99
5905;BME280;2978;42.012;24.880;2023-02-03T00:03:25;98970.56;;;7.58;57.57
5905;BME280;2978;42.012;24.880;2023-02-03T00:05:51;98967.44;;;7.49;58.29
5905;BME280;2978;42.012;24.880;2023-02-03T00:08:17;98969.44;;;7.37;59.52
5905;BME280;2978;42.012;24.880;2023-02-03T00:10:44;98985.19;;;7.30;59.41
5905;BME280;2978;42.012;24.880;2023-02-03T00:13:09;98979.72;;;7.30;56.82
5905;BME280;2978;42.012;24.880;2023-02-03T00:15:35;98979.78;;;7.35;56.36
5905;BME280;2978;42.012;24.880;2023-02-03T00:18:00;98980.19;;;7.44;56.13
5905;BME280;2978;42.012;24.880;2023-02-03T00:20:26;98963.59;;;7.50;55.01
5905;BME280;2978;42.012;24.880;2023-02-03T00:22:51;98969.47;;;7.59;54.88
5905;BME280;2978;42.012;24.880;2023-02-03T00:25:17;98974.53;;;7.67;55.08
5905;BME280;2978;42.012;24.880;2023-02-03T00:27:43;98966.22;;;7.62;55.08
5905;BME280;2978;42.012;24.880;2023-02-03T00:30:10;98984.06;;;7.64;54.60
5905;BME280;2978;42.012;24.880;2023-02-03T00:32:35;98976.84;;;7.58;55.05
5905;BME280;2978;42.012;24.880;2023-02-03T00:35:01;98974.88;;;7.54;54.05
5905;BME280;2978;42.012;24.880;2023-02-03T00:37:26;98973.72;;;7.50;54.59
5905;BME280;2978;42.012;24.880;2023-02-03T00:39:52;98976.56;;;7.55;54.94
5905;BME280;2978;42.012;24.880;2023-02-03T00:42:17;98966.09;;;7.52;54.63
5905;BME280;2978;42.012;24.880;2023-02-03T00:44:42;98966.00;;;7.63;53.81
5905;BME280;2978;42.012;24.880;2023-02-03T00:47:08;98970.72;;;7.68;53.78
5905;BME280;2978;42.012;24.880;2023-02-03T00:49:33;98981.00;;;7.61;54.23
5905;BME280;2978;42.012;24.880;2023-02-03T00:51:59;98967.25;;;7.56;54.33
5905;BME280;2978;42.012;24.880;2023-02-03T00:54:24;98954.66;;;7.55;54.23
5905;BME280;2978;42.012;24.880;2023-02-03T00:56:50;98962.78;;;7.50;54.26
5905;BME280;2978;42.012;24.880;2023-02-03T00:59:15;98964.53;;;7.56;54.27
5905;BME280;2978;42.012;24.880;2023-02-03T01:01:41;98973.31;;;7.58;54.45
5905;BME280;2978;42.012;24.880;2023-02-03T01:04:06;98971.22;;;7.48;54.25
5905;BME280;2978;42.012;24.880;2023-02-03T01:06:32;98984.50;;;7.56;53.63
5905;BME280;2978;42.012;24.880;2023-02-03T01:08:57;98972.16;;;7.54;53.36
5905;BME280;2978;42.012;24.880;2023-02-03T01:11:25;98977.34;;;7.55;53.52
5905;BME280;2978;42.012;24.880;2023-02-03T01:13:52;98967.75;;;7.53;53.33
5905;BME280;2978;42.012;24.880;2023-02-03T01:16:19;98973.72;;;7.50;52.69
5905;BME280;2978;42.012;24.880;2023-02-03T01:18:46;98983.66;;;7.56;52.48
5905;BME280;2978;42.012;24.880;2023-02-03T01:21:17;98962.28;;;7.53;52.97
5905;BME280;2978;42.012;24.880;2023-02-03T01:23:44;98978.00;;;7.62;53.75
5905;BME280;2978;42.012;24.880;2023-02-03T01:26:12;98974.69;;;7.77;53.16
5905;BME280;2978;42.012;24.880;2023-02-03T01:28:39;98979.13;;;7.83;53.11
5905;BME280;2978;42.012;24.880;2023-02-03T01:31:16;98973.66;;;7.83;52.68
5905;BME280;2978;42.012;24.880;2023-02-03T01:33:42;98966.03;;;7.85;52.98
5905;BME280;2978;42.012;24.880;2023-02-03T01:36:11;98983.63;;;7.89;52.94
5905;BME280;2978;42.012;24.880;2023-02-03T01:38:38;98979.72;;;7.85;52.45
5905;BME280;2978;42.012;24.880;2023-02-03T01:41:06;98970.28;;;7.76;53.58
5905;BME280;2978;42.012;24.880;2023-02-03T01:43:34;98969.22;;;7.77;53.73
5905;BME280;2978;42.012;24.880;2023-02-03T01:46:05;98969.22;;;7.77;53.45
5905;BME280;2978;42.012;24.880;2023-02-03T01:48:32;98981.00;;;7.77;54.05
5905;BME280;2978;42.012;24.880;2023-02-03T01:51:03;98979.84;;;7.73;53.48
5905;BME280;2978;42.012;24.880;2023-02-03T01:53:30;98980.00;;;7.67;54.39
5905;BME280;2978;42.012;24.880;2023-02-03T01:55:57;98983.31;;;7.69;54.77
5905;BME280;2978;42.012;24.880;2023-02-03T01:58:27;99001.31;;;7.65;54.25
5905;BME280;2978;42.012;24.880;2023-02-03T02:00:54;99004.47;;;7.57;55.22
5905;BME280;2978;42.012;24.880;2023-02-03T02:03:28;99003.66;;;7.56;55.24
5905;BME280;2978;42.012;24.880;2023-02-03T02:06:03;99019.22;;;7.56;55.11
5905;BME280;2978;42.012;24.880;2023-02-03T02:08:30;99001.56;;;7.47;55.82
5905;BME280;2978;42.012;24.880;2023-02-03T02:10:57;99003.13;;;7.43;55.93
5905;BME280;2978;42.012;24.880;2023-02-03T02:13:24;99011.69;;;7.30;56.95
5905;BME280;2978;42.012;24.880;2023-02-03T02:19:00;99029.31;;;7.22;57.85
5905;BME280;2978;42.012;24.880;2023-02-03T02:21:47;99026.75;;;7.16;58.35
5905;BME280;2978;42.012;24.880;2023-02-03T02:27:07;99022.25;;;7.10;57.97
5905;BME280;2978;42.012;24.880;2023-02-03T02:35:16;99020.59;;;7.09;58.95
5905;BME280;2978;42.012;24.880;2023-02-03T02:37:51;99020.19;;;7.00;58.69
5905;BME280;2978;42.012;24.880;2023-02-03T02:50:45;99057.03;;;6.98;57.99
5905;BME280;2978;42.012;24.880;2023-02-03T02:53:13;99060.59;;;6.98;57.52
5905;BME280;2978;42.012;24.880;2023-02-03T02:55:40;99062.97;;;6.95;57.83
5905;BME280;2978;42.012;24.880;2023-02-03T02:58:10;99057.53;;;6.95;57.87
5905;BME280;2978;42.012;24.880;2023-02-03T03:00:38;99060.84;;;6.97;57.15
5905;BME280;2978;42.012;24.880;2023-02-03T03:03:16;99050.75;;;6.97;56.21
5905;BME280;2978;42.012;24.880;2023-02-03T03:05:46;99061.94;;;6.96;56.58
5905;BME280;2978;42.012;24.880;2023-02-03T03:08:14;99049.81;;;6.92;56.33
5905;BME280;2978;42.012;24.880;2023-02-03T03:10:42;99060.16;;;6.90;56.24
5905;BME280;2978;42.012;24.880;2023-02-03T03:13:12;99065.13;;;6.93;56.50
5905;BME280;2978;42.012;24.880;2023-02-03T03:15:39;99067.28;;;6.91;55.59
5905;BME280;2978;42.012;24.880;2023-02-03T03:18:16;99059.66;;;6.93;55.34
5905;BME280;2978;42.012;24.880;2023-02-03T03:20:46;99056.84;;;6.88;55.73
5905;BME280;2978;42.012;24.880;2023-02-03T03:23:21;99066.13;;;6.87;54.92
5905;BME280;2978;42.012;24.880;2023-02-03T03:25:53;99068.97;;;6.80;55.41
5905;BME280;2978;42.012;24.880;2023-02-03T03:28:27;99063.16;;;6.76;55.67
5905;BME280;2978;42.012;24.880;2023-02-03T03:30:54;99079.19;;;6.84;55.22
5905;BME280;2978;42.012;24.880;2023-02-03T03:33:21;99068.84;;;6.87;55.19
5905;BME280;2978;42.012;24.880;2023-02-03T03:36:02;99074.91;;;6.89;55.37
5905;BME280;2978;42.012;24.880;2023-02-03T03:38:41;99084.16;;;6.88;55.55
5905;BME280;2978;42.012;24.880;2023-02-03T03:43:54;99073.63;;;6.79;56.40
5905;BME280;2978;42.012;24.880;2023-02-03T03:46:26;99079.09;;;6.79;56.21
5905;BME280;2978;42.012;24.880;2023-02-03T03:48:59;99077.81;;;6.70;56.50
5905;BME280;2978;42.012;24.880;2023-02-03T03:54:06;99092.91;;;6.61;56.43
5905;BME280;2978;42.012;24.880;2023-02-03T03:56:38;99081.53;;;6.53;56.38
5905;BME280;2978;42.012;24.880;2023-02-03T03:59:07;99092.81;;;6.56;56.82
5905;BME280;2978;42.012;24.880;2023-02-03T04:01:36;99089.00;;;6.57;57.11
5905;BME280;2978;42.012;24.880;2023-02-03T04:04:06;99086.50;;;6.56;56.54
5905;BME280;2978;42.012;24.880;2023-02-03T04:06:33;99094.47;;;6.57;56.87
5905;BME280;2978;42.012;24.880;2023-02-03T04:08:59;99091.63;;;6.52;57.05
5905;BME280;2978;42.012;24.880;2023-02-03T04:11:26;99090.69;;;6.58;56.71
5905;BME280;2978;42.012;24.880;2023-02-03T04:14:10;99111.78;;;6.63;55.99
5905;BME280;2978;42.012;24.880;2023-02-03T04:16:35;99119.75;;;6.64;56.33
5905;BME280;2978;42.012;24.880;2023-02-03T04:19:01;99113.31;;;6.70;55.74
5905;BME280;2978;42.012;24.880;2023-02-03T04:21:26;99123.50;;;6.75;55.87
5905;BME280;2978;42.012;24.880;2023-02-03T04:23:51;99117.25;;;6.74;56.30
5905;BME280;2978;42.012;24.880;2023-02-03T04:26:17;99112.59;;;6.75;55.35
5905;BME280;2978;42.012;24.880;2023-02-03T04:28:43;99117.69;;;6.71;56.36
5905;BME280;2978;42.012;24.880;2023-02-03T04:31:08;99113.31;;;6.70;56.65
5905;BME280;2978;42.012;24.880;2023-02-03T04:33:34;99103.84;;;6.61;56.68
5905;BME280;2978;42.012;24.880;2023-02-03T04:35:59;99112.63;;;6.63;57.15
5905;BME280;2978;42.012;24.880;2023-02-03T04:38:24;99099.34;;;6.55;57.63
5905;BME280;2978;42.012;24.880;2023-02-03T04:40:50;99096.63;;;6.55;58.12
5905;BME280;2978;42.012;24.880;2023-02-03T04:43:15;99101.25;;;6.55;58.72
5905;BME280;2978;42.012;24.880;2023-02-03T04:45:41;99105.88;;;6.54;58.06
5905;BME280;2978;42.012;24.880;2023-02-03T04:48:06;99097.56;;;6.49;58.18
5905;BME280;2978;42.012;24.880;2023-02-03T04:50:32;99096.38;;;6.45;57.91
5905;BME280;2978;42.012;24.880;2023-02-03T04:52:57;99108.50;;;6.49;58.03
5905;BME280;2978;42.012;24.880;2023-02-03T04:55:28;99085.47;;;6.45;58.88
5905;BME280;2978;42.012;24.880;2023-02-03T04:57:57;99091.16;;;6.44;58.50
5905;BME280;2978;42.012;24.880;2023-02-03T05:00:23;99105.56;;;6.39;58.37
5905;BME280;2978;42.012;24.880;2023-02-03T05:02:49;99115.88;;;6.37;58.32
5905;BME280;2978;42.012;24.880;2023-02-03T05:05:14;99127.41;;;6.39;58.59
5905;BME280;2978;42.012;24.880;2023-02-03T05:07:40;99132.63;;;6.41;59.35
5905;BME280;2978;42.012;24.880;2023-02-03T05:10:05;99128.09;;;6.35;59.16
5905;BME280;2978;42.012;24.880;2023-02-03T05:12:31;99124.91;;;6.38;58.39
5905;BME280;2978;42.012;24.880;2023-02-03T05:14:57;99130.13;;;6.39;60.11
5905;BME280;2978;42.012;24.880;2023-02-03T05:17:22;99137.72;;;6.37;59.82
5905;BME280;2978;42.012;24.880;2023-02-03T05:19:48;99141.84;;;6.40;59.63
5905;BME280;2978;42.012;24.880;2023-02-03T05:22:13;99149.69;;;6.36;58.78
5905;BME280;2978;42.012;24.880;2023-02-03T05:24:39;99159.09;;;6.40;59.05
5905;BME280;2978;42.012;24.880;2023-02-03T05:27:04;99157.66;;;6.49;59.48
5905;BME280;2978;42.012;24.880;2023-02-03T05:29:30;99165.03;;;6.60;59.74
5905;BME280;2978;42.012;24.880;2023-02-03T05:31:55;99161.06;;;6.68;59.61
5905;BME280;2978;42.012;24.880;2023-02-03T05:34:20;99163.94;;;6.61;58.30
5905;BME280;2978;42.012;24.880;2023-02-03T05:36:46;99170.59;;;6.65;58.42
5905;BME280;2978;42.012;24.880;2023-02-03T05:39:11;99167.16;;;6.58;58.27
5905;BME280;2978;42.012;24.880;2023-02-03T05:41:37;99174.25;;;6.59;58.13
5905;BME280;2978;42.012;24.880;2023-02-03T05:44:22;99177.69;;;6.66;57.94
5905;BME280;2978;42.012;24.880;2023-02-03T05:46:49;99179.25;;;6.74;57.06
5905;BME280;2978;42.012;24.880;2023-02-03T05:49:15;99190.72;;;6.88;57.89
5905;BME280;2978;42.012;24.880;2023-02-03T05:51:40;99190.50;;;6.89;57.78
5905;BME280;2978;42.012;24.880;2023-02-03T05:54:06;99186.47;;;6.92;57.00
5905;BME280;2978;42.012;24.880;2023-02-03T05:56:32;99200.97;;;6.92;56.09
5905;BME280;2978;42.012;24.880;2023-02-03T05:58:57;99199.03;;;6.93;56.08
5905;BME280;2978;42.012;24.880;2023-02-03T06:01:24;99197.38;;;6.92;55.11
5905;BME280;2978;42.012;24.880;2023-02-03T06:03:49;99206.63;;;6.91;54.04
5905;BME280;2978;42.012;24.880;2023-02-03T06:06:15;99216.25;;;7.05;53.88
5905;BME280;2978;42.012;24.880;2023-02-03T06:08:41;99226.00;;;7.01;53.20
5905;BME280;2978;42.012;24.880;2023-02-03T06:11:07;99221.69;;;7.05;53.23
5905;BME280;2978;42.012;24.880;2023-02-03T06:13:32;99231.53;;;7.17;53.66
5905;BME280;2978;42.012;24.880;2023-02-03T06:15:58;99240.09;;;7.21;52.52
5905;BME280;2978;42.012;24.880;2023-02-03T06:18:23;99228.22;;;7.15;52.86
5905;BME280;2978;42.012;24.880;2023-02-03T06:20:49;99233.69;;;7.15;53.46
5905;BME280;2978;42.012;24.880;2023-02-03T06:23:15;99230.59;;;7.12;53.34
5905;BME280;2978;42.012;24.880;2023-02-03T06:25:41;99240.00;;;7.16;52.55
5905;BME280;2978;42.012;24.880;2023-02-03T06:28:07;99232.72;;;7.21;52.93
5905;BME280;2978;42.012;24.880;2023-02-03T06:30:33;99236.75;;;7.30;53.15
5905;BME280;2978;42.012;24.880;2023-02-03T06:32:58;99250.19;;;7.32;52.69
5905;BME280;2978;42.012;24.880;2023-02-03T06:35:24;99238.75;;;7.35;53.08
5905;BME280;2978;42.012;24.880;2023-02-03T06:37:49;99244.31;;;7.40;53.17
5905;BME280;2978;42.012;24.880;2023-02-03T06:40:15;99240.31;;;7.31;53.04
5905;BME280;2978;42.012;24.880;2023-02-03T06:42:44;99241.88;;;7.27;52.24
5905;BME280;2978;42.012;24.880;2023-02-03T06:45:10;99235.72;;;7.20;53.59
5905;BME280;2978;42.012;24.880;2023-02-03T06:47:38;99247.94;;;7.17;52.42
5905;BME280;2978;42.012;24.880;2023-02-03T06:50:04;99243.66;;;7.21;52.39
5905;BME280;2978;42.012;24.880;2023-02-03T06:52:29;99259.94;;;7.28;52.53
5905;BME280;2978;42.012;24.880;2023-02-03T06:54:55;99274.06;;;7.36;53.12
5905;BME280;2978;42.012;24.880;2023-02-03T06:57:20;99282.16;;;7.31;52.44
5905;BME280;2978;42.012;24.880;2023-02-03T06:59:46;99289.16;;;7.39;52.98
5905;BME280;2978;42.012;24.880;2023-02-03T07:02:11;99288.78;;;7.47;52.78
5905;BME280;2978;42.012;24.880;2023-02-03T07:04:36;99294.00;;;7.60;52.39
5905;BME280;2978;42.012;24.880;2023-02-03T07:07:03;99290.41;;;7.59;51.94
5905;BME280;2978;42.012;24.880;2023-02-03T07:09:28;99293.59;;;7.68;51.23
5905;BME280;2978;42.012;24.880;2023-02-03T07:11:54;99300.63;;;7.64;52.00
5905;BME280;2978;42.012;24.880;2023-02-03T07:14:19;99291.16;;;7.55;52.00
5905;BME280;2978;42.012;24.880;2023-02-03T07:16:45;99294.44;;;7.57;51.68
5905;BME280;2978;42.012;24.880;2023-02-03T07:19:10;99286.59;;;7.60;52.79
5905;BME280;2978;42.012;24.880;2023-02-03T07:21:36;99297.06;;;7.63;52.12
5905;BME280;2978;42.012;24.880;2023-02-03T07:24:01;99274.00;;;7.59;52.45
5905;BME280;2978;42.012;24.880;2023-02-03T07:26:27;99284.97;;;7.48;52.35
5905;BME280;2978;42.012;24.880;2023-02-03T07:28:53;99285.53;;;7.50;53.12
5905;BME280;2978;42.012;24.880;2023-02-03T07:31:18;99292.69;;;7.51;52.45
5905;BME280;2978;42.012;24.880;2023-02-03T07:33:44;99279.63;;;7.53;51.52
5905;BME280;2978;42.012;24.880;2023-02-03T07:36:10;99282.72;;;7.45;52.41
5905;BME280;2978;42.012;24.880;2023-02-03T07:38:36;99286.53;;;7.44;52.88
5905;BME280;2978;42.012;24.880;2023-02-03T07:41:05;99291.50;;;7.47;52.01
5905;BME280;2978;42.012;24.880;2023-02-03T07:43:30;99299.13;;;7.45;52.43
5905;BME280;2978;42.012;24.880;2023-02-03T07:45:56;99319.94;;;7.46;53.11
5905;BME280;2978;42.012;24.880;2023-02-03T07:48:21;99315.53;;;7.45;53.04
5905;BME280;2978;42.012;24.880;2023-02-03T07:50:47;99326.97;;;7.42;53.75
5905;BME280;2978;42.012;24.880;2023-02-03T07:53:13;99319.72;;;7.47;53.00
5905;BME280;2978;42.012;24.880;2023-02-03T07:55:39;99324.34;;;7.47;53.25
5905;BME280;2978;42.012;24.880;2023-02-03T07:58:05;99331.94;;;7.45;53.52
5905;BME280;2978;42.012;24.880;2023-02-03T08:00:31;99323.03;;;7.49;53.36
5905;BME280;2978;42.012;24.880;2023-02-03T08:02:56;99319.31;;;7.55;53.49
5905;BME280;2978;42.012;24.880;2023-02-03T08:05:22;99319.31;;;7.67;53.14
5905;BME280;2978;42.012;24.880;2023-02-03T08:07:47;99323.78;;;7.73;53.73
5905;BME280;2978;42.012;24.880;2023-02-03T08:10:13;99320.56;;;7.76;53.14
5905;BME280;2978;42.012;24.880;2023-02-03T08:12:40;99323.53;;;7.86;53.59
5905;BME280;2978;42.012;24.880;2023-02-03T08:15:07;99322.44;;;7.87;52.48
5905;BME280;2978;42.012;24.880;2023-02-03T08:17:33;99324.22;;;7.93;53.50
5905;BME280;2978;42.012;24.880;2023-02-03T08:19:59;99315.41;;;7.91;52.17
5905;BME280;2978;42.012;24.880;2023-02-03T08:22:25;99314.81;;;7.89;52.55
5905;BME280;2978;42.012;24.880;2023-02-03T08:24:51;99318.31;;;8.01;53.21
5905;BME280;2978;42.012;24.880;2023-02-03T08:27:20;99306.75;;;8.11;51.76
5905;BME280;2978;42.012;24.880;2023-02-03T08:29:47;99325.63;;;8.24;51.65
5905;BME280;2978;42.012;24.880;2023-02-03T08:32:17;99331.09;;;8.24;51.75
5905;BME280;2978;42.012;24.880;2023-02-03T08:34:44;99323.81;;;8.29;51.62
5905;BME280;2978;42.012;24.880;2023-02-03T08:37:11;99335.38;;;8.31;51.75
5905;BME280;2978;42.012;24.880;2023-02-03T08:39:37;99335.44;;;8.36;51.41
5905;BME280;2978;42.012;24.880;2023-02-03T08:42:03;99339.66;;;8.27;50.75
5905;BME280;2978;42.012;24.880;2023-02-03T08:44:30;99357.75;;;8.28;51.04
5905;BME280;2978;42.012;24.880;2023-02-03T08:46:57;99349.75;;;8.38;50.75
5905;BME280;2978;42.012;24.880;2023-02-03T08:49:24;99351.75;;;8.59;49.96
5905;BME280;2978;42.012;24.880;2023-02-03T08:51:50;99370.53;;;8.84;50.47
5905;BME280;2978;42.012;24.880;2023-02-03T08:54:17;99361.22;;;9.01;50.47
5905;BME280;2978;42.012;24.880;2023-02-03T08:56:43;99364.88;;;9.24;49.20
5905;BME280;2978;42.012;24.880;2023-02-03T08:59:08;99354.97;;;9.23;48.90
5905;BME280;2978;42.012;24.880;2023-02-03T09:01:34;99358.34;;;9.30;48.96
5905;BME280;2978;42.012;24.880;2023-02-03T09:03:59;99356.72;;;9.29;48.77
5905;BME280;2978;42.012;24.880;2023-02-03T09:06:29;99357.88;;;9.33;48.58
5905;BME280;2978;42.012;24.880;2023-02-03T09:08:55;99352.94;;;9.35;48.36
5905;BME280;2978;42.012;24.880;2023-02-03T09:11:21;99337.72;;;9.44;48.12
5905;BME280;2978;42.012;24.880;2023-02-03T09:13:47;99352.06;;;9.51;48.40
5905;BME280;2978;42.012;24.880;2023-02-03T09:16:15;99345.53;;;9.52;48.41
5905;BME280;2978;42.012;24.880;2023-02-03T09:18:45;99345.47;;;9.30;47.74
5905;BME280;2978;42.012;24.880;2023-02-03T09:21:12;99346.41;;;9.19;48.62
5905;BME280;2978;42.012;24.880;2023-02-03T09:23:39;99354.88;;;9.18;48.57
5905;BME280;2978;42.012;24.880;2023-02-03T09:26:10;99358.00;;;9.04;47.31
5905;BME280;2978;42.012;24.880;2023-02-03T09:28:36;99352.50;;;9.04;48.15
5905;BME280;2978;42.012;24.880;2023-02-03T09:31:10;99366.28;;;9.09;46.93
5905;BME280;2978;42.012;24.880;2023-02-03T09:33:36;99344.03;;;9.06;47.76
5905;BME280;2978;42.012;24.880;2023-02-03T09:36:03;99342.84;;;9.02;45.83
5905;BME280;2978;42.012;24.880;2023-02-03T09:38:30;99343.44;;;9.04;45.47
5905;BME280;2978;42.012;24.880;2023-02-03T09:41:10;99345.41;;;9.08;45.33
5905;BME280;2978;42.012;24.880;2023-02-03T09:43:51;99359.06;;;9.03;45.04
5905;BME280;2978;42.012;24.880;2023-02-03T09:46:24;99343.28;;;8.94;46.06
5905;BME280;2978;42.012;24.880;2023-02-03T09:48:53;99343.63;;;8.97;45.87
5905;BME280;2978;42.012;24.880;2023-02-03T09:52:03;99320.47;;;9.10;46.25
5905;BME280;2978;42.012;24.880;2023-02-03T09:55:00;99344.31;;;9.26;45.64
5905;BME280;2978;42.012;24.880;2023-02-03T09:57:30;99334.06;;;9.38;44.87
5905;BME280;2978;42.012;24.880;2023-02-03T09:59:58;99326.09;;;9.37;44.16
5905;BME280;2978;42.012;24.880;2023-02-03T10:13:18;99339.66;;;9.65;41.90
5905;BME280;2978;42.012;24.880;2023-02-03T10:16:07;99340.88;;;9.74;41.55
5905;BME280;2978;42.012;24.880;2023-02-03T10:18:41;99346.72;;;10.04;41.28
5905;BME280;2978;42.012;24.880;2023-02-03T10:21:33;99336.03;;;10.29;41.00
5905;BME280;2978;42.012;24.880;2023-02-03T10:24:03;99319.63;;;10.39;40.96
5905;BME280;2978;42.012;24.880;2023-02-03T10:26:30;99333.91;;;10.36;40.30
5905;BME280;2978;42.012;24.880;2023-02-03T10:28:56;99334.19;;;10.35;40.48
5905;BME280;2978;42.012;24.880;2023-02-03T10:31:25;99333.88;;;10.31;40.57
5905;BME280;2978;42.012;24.880;2023-02-03T10:34:07;99344.50;;;10.23;40.60
5905;BME280;2978;42.012;24.880;2023-02-03T10:39:28;99339.47;;;10.14;40.31
5905;BME280;2978;42.012;24.880;2023-02-03T10:41:56;99333.50;;;10.01;40.74
5905;BME280;2978;42.012;24.880;2023-02-03T10:44:27;99330.78;;;9.79;40.90
5905;BME280;2978;42.012;24.880;2023-02-03T10:46:55;99332.47;;;9.85;40.84
5905;BME280;2978;42.012;24.880;2023-02-03T10:49:21;99314.72;;;9.93;40.25
5905;BME280;2978;42.012;24.880;2023-02-03T10:51:51;99304.38;;;10.00;40.83
5905;BME280;2978;42.012;24.880;2023-02-03T10:54:27;99310.44;;;10.02;40.98
5905;BME280;2978;42.012;24.880;2023-02-03T10:56:55;99309.75;;;9.90;40.07
5905;BME280;2978;42.012;24.880;2023-02-03T10:59:30;99302.69;;;9.99;40.46
5905;BME280;2978;42.012;24.880;2023-02-03T11:01:56;99283.69;;;10.14;39.91
5905;BME280;2978;42.012;24.880;2023-02-03T11:04:27;99279.97;;;10.03;40.19
5905;BME280;2978;42.012;24.880;2023-02-03T11:07:24;99275.41;;;10.09;39.58
5905;BME280;2978;42.012;24.880;2023-02-03T11:09:51;99281.34;;;10.06;40.34
5905;BME280;2978;42.012;24.880;2023-02-03T11:12:18;99286.38;;;10.09;39.93
5905;BME280;2978;42.012;24.880;2023-02-03T11:14:53;99276.44;;;10.08;40.11
5905;BME280;2978;42.012;24.880;2023-02-03T11:17:24;99283.63;;;10.09;39.62
5905;BME280;2978;42.012;24.880;2023-02-03T11:20:01;99267.25;;;9.97;39.40
5905;BME280;2978;42.012;24.880;2023-02-03T11:22:29;99280.63;;;9.89;40.05
5905;BME280;2978;42.012;24.880;2023-02-03T11:24:56;99278.88;;;9.78;39.57
5905;BME280;2978;42.012;24.880;2023-02-03T11:27:23;99280.72;;;9.72;40.01
5905;BME280;2978;42.012;24.880;2023-02-03T11:32:47;99266.81;;;9.57;39.57
5905;BME280;2978;42.012;24.880;2023-02-03T11:37:41;99259.03;;;9.49;40.04
5905;BME280;2978;42.012;24.880;2023-02-03T11:42:36;99255.84;;;9.36;39.96
5905;BME280;2978;42.012;24.880;2023-02-03T11:45:24;99262.91;;;9.32;41.08
5905;BME280;2978;42.012;24.880;2023-02-03T11:47:53;99250.41;;;9.41;41.04
5905;BME280;2978;42.012;24.880;2023-02-03T11:50:37;99255.69;;;9.47;41.38
5905;BME280;2978;42.012;24.880;2023-02-03T12:26:24;99209.03;;;9.95;36.80
5905;BME280;2978;42.012;24.880;2023-02-03T12:29:03;99204.34;;;9.96;37.17
5905;BME280;2978;42.012;24.880;2023-02-03T12:34:37;99196.53;;;10.09;38.12
5905;BME280;2978;42.012;24.880;2023-02-03T12:37:10;99203.22;;;10.18;36.90
5905;BME280;2978;42.012;24.880;2023-02-03T12:39:52;99191.19;;;10.25;37.09
5905;BME280;2978;42.012;24.880;2023-02-03T12:42:21;99198.34;;;10.26;36.71
5905;BME280;2978;42.012;24.880;2023-02-03T12:45:13;99189.31;;;10.30;35.97
5905;BME280;2978;42.012;24.880;2023-02-03T12:47:46;99191.50;;;10.28;36.46
5905;BME280;2978;42.012;24.880;2023-02-03T12:50:44;99197.22;;;10.22;35.99
5905;BME280;2978;42.012;24.880;2023-02-03T12:53:20;99200.13;;;10.10;36.50
5905;BME280;2978;42.012;24.880;2023-02-03T12:58:37;99196.72;;;10.03;38.05
5905;BME280;2978;42.012;24.880;2023-02-03T13:04:14;99201.56;;;9.91;36.75
5905;BME280;2978;42.012;24.880;2023-02-03T13:07:11;99194.81;;;9.77;37.83
5905;BME280;2978;42.012;24.880;2023-02-03T13:13:10;99187.56;;;9.92;38.03
5905;BME280;2978;42.012;24.880;2023-02-03T13:16:06;99187.72;;;10.07;37.76
5905;BME280;2978;42.012;24.880;2023-02-03T13:59:04;99163.47;;;10.68;34.58
5905;BME280;2978;42.012;24.880;2023-02-03T14:01:37;99167.56;;;10.65;33.48
5905;BME280;2978;42.012;24.880;2023-02-03T14:04:06;99160.63;;;10.53;34.16
5905;BME280;2978;42.012;24.880;2023-02-03T14:09:01;99165.94;;;10.69;33.72
5905;BME280;2978;42.012;24.880;2023-02-03T14:16:54;99149.31;;;10.44;33.45
5905;BME280;2978;42.012;24.880;2023-02-03T14:22:38;99153.09;;;10.38;34.11
5905;BME280;2978;42.012;24.880;2023-02-03T14:25:07;99156.34;;;10.30;34.30
5905;BME280;2978;42.012;24.880;2023-02-03T14:28:06;99151.28;;;10.17;34.75
5905;BME280;2978;42.012;24.880;2023-02-03T14:31:11;99155.50;;;9.98;35.14
5905;BME280;2978;42.012;24.880;2023-02-03T14:34:13;99154.88;;;9.91;35.59
5905;BME280;2978;42.012;24.880;2023-02-03T14:36:48;99157.94;;;9.94;35.71
5905;BME280;2978;42.012;24.880;2023-02-03T14:42:06;99171.53;;;9.79;36.21
5905;BME280;2978;42.012;24.880;2023-02-03T15:59:30;99189.44;;;7.58;39.50
5905;BME280;2978;42.012;24.880;2023-02-03T16:25:31;99190.97;;;7.26;40.79
5905;BME280;2978;42.012;24.880;2023-02-03T16:28:15;99188.16;;;7.21;41.07
5905;BME280;2978;42.012;24.880;2023-02-03T16:31:15;99183.88;;;7.25;41.16
5905;BME280;2978;42.012;24.880;2023-02-03T16:34:01;99186.16;;;7.16;41.62
5905;BME280;2978;42.012;24.880;2023-02-03T16:36:45;99173.78;;;7.14;41.58
5905;BME280;2978;42.012;24.880;2023-02-03T16:39:29;99175.56;;;7.20;40.83
5905;BME280;2978;42.012;24.880;2023-02-03T16:42:19;99179.50;;;7.12;41.66
5905;BME280;2978;42.012;24.880;2023-02-03T16:45:14;99175.47;;;7.15;41.55
5905;BME280;2978;42.012;24.880;2023-02-03T16:47:59;99175.81;;;7.07;41.99
5905;BME280;2978;42.012;24.880;2023-02-03T16:50:44;99176.31;;;7.04;42.02
5905;BME280;2978;42.012;24.880;2023-02-03T16:53:27;99174.19;;;7.06;42.03
5905;BME280;2978;42.012;24.880;2023-02-03T16:55:56;99160.41;;;7.01;42.15
5905;BME280;2978;42.012;24.880;2023-02-03T16:58:22;99161.47;;;7.00;43.07
5905;BME280;2978;42.012;24.880;2023-02-03T17:00:49;99159.91;;;7.04;40.96
5905;BME280;2978;42.012;24.880;2023-02-03T17:03:20;99158.25;;;7.03;42.28
5905;BME280;2978;42.012;24.880;2023-02-03T17:05:47;99158.03;;;6.93;43.19
5905;BME280;2978;42.012;24.880;2023-02-03T17:08:15;99162.81;;;6.97;42.71
5905;BME280;2978;42.012;24.880;2023-02-03T17:10:42;99155.66;;;6.96;42.81
5905;BME280;2978;42.012;24.880;2023-02-03T17:13:08;99156.75;;;6.83;43.65
5905;BME280;2978;42.012;24.880;2023-02-03T17:15:47;99148.81;;;6.82;44.91
5905;BME280;2978;42.012;24.880;2023-02-03T17:18:14;99146.47;;;6.74;44.60
5905;BME280;2978;42.012;24.880;2023-02-03T17:20:41;99137.69;;;6.60;45.96
5905;BME280;2978;42.012;24.880;2023-02-03T17:23:07;99130.09;;;6.62;46.98
5905;BME280;2978;42.012;24.880;2023-02-03T17:25:33;99127.22;;;6.57;46.69
5905;BME280;2978;42.012;24.880;2023-02-03T17:28:01;99123.25;;;6.48;48.09
5905;BME280;2978;42.012;24.880;2023-02-03T17:30:26;99114.19;;;6.36;48.12
5905;BME280;2978;42.012;24.880;2023-02-03T17:32:53;99122.53;;;6.41;47.75
5905;BME280;2978;42.012;24.880;2023-02-03T17:35:18;99114.47;;;6.23;48.23
5905;BME280;2978;42.012;24.880;2023-02-03T17:37:44;99107.81;;;6.19;47.20
5905;BME280;2978;42.012;24.880;2023-02-03T17:40:10;99106.63;;;6.27;46.69